Tighnabruaich, United Kingdom
Current Conditions -  °F | °C
As of 7:20 AM on Wednesday 22 Oct 2014 (Local Time) from EGPF Reporting Station
Overcast Overcast  
Wind Chill: 50°   Ceiling: 3700
Heat Index: 50°   Visibility: 6mi
Dew Point: 45°   Wind: 10mph
Humidity: 82%   Direction: 240°WSW
Pressure: 30.09"   Gusts: NA
Location:  55.89°N, 5.24°W
Report Text: EGPF 220620Z AUTO 24009KT 9999 OVC037 10/07 Q1019
Loading
Personal Weather Stations






























Interactive Weather Map
Tropical Storm Tracking
New forecast layout! Learn more

10-Day Weather Forecast

Advertisements
Track Severe Weather on mobile